Pagrindinis puslapis
METAR-TAF:

METAR-TAF

Oro uostai :

Trolhetanas-Venešborgas, Švedija

platuma: 58-19N, ilguma: 012-21E, Aukštis: 41 m

Dabartinis oras

Ataskaita buvo paskelbta 31 minutes, ne 02:20 UTC
Vėjas 5 kt iš Pietų/Pietvakarių
Temperatūra 16°C
Drėgmė 88%
Slėgis 1024 hPa
Matomumas 10 km arba daugiau

METAR: ESGT 240220Z AUTO 21005KT 9999 OVC022/// 16/14 Q1024

Laikas: 04:51 (02:51 UTC)

Prognozė

Ataskaita buvo paskelbta 12 valandos ir 21 minutes, ne 14:30 UTC
Prognozė galioja nuo 23 metu 15 UTC su 23 metu 19 UTC
Vėjas 13 kt iš Vakarų/Pietvakarių
Matomumas 10 km arba daugiau
Išsisklaidę debesys ne aukštis 2500 ft

TAF: ESGT 231430Z 2315/2319 25013KT 9999 SCT025

Orai ataskaitas ir orų prognozės (METAR, TAF).

turimą stotys yra geltonos ir raudonos taškus žemėlapyje.

Perkelti pele per norėdami pamatyti stoties vardą.

Tada spustelėkite, norėdami matyti oro stebėjimo ir prognozės.

Norėdami pakeisti žemėlapį: spustelėkite ant žalios mygtukų su juodo kryžiaus žemyn,; žalią mygtuką su brūkšneliu, jei norite nutolinti; arba žalių rodyklių gretimoms žemėlapius.


METAR-TAF: